Time;durP1;ratioP1;P1;durP2;ratioP2;P2;SDS_P1;SDS_P2;PMS_P1;PMS_P2;Temp;Humidity;BMP_temperature;BMP_pressure;BME280_temperature;BME280_humidity;BME280_pressure;Samples;Min_cycle;Max_cycle;Signal;HPM_P1;HPM_P2
2023/06/15 00:01:40;;;;;;;9.32;4.30;;;;;;;18.87;70.78;100207.03;5037754;28;20032;-67
2023/06/15 00:04:05;;;;;;;10.10;3.90;;;;;;;18.88;70.62;100211.44;5038165;28;20021;-67
2023/06/15 00:06:32;;;;;;;8.30;4.07;;;;;;;18.87;70.27;100211.53;5039702;28;20136;-67
2023/06/15 00:08:58;;;;;;;9.05;3.65;;;;;;;18.86;70.52;100217.81;5037647;28;20485;-67
2023/06/15 00:11:24;;;;;;;11.00;3.50;;;;;;;18.83;70.92;100212.59;5037782;28;20032;-68
2023/06/15 00:13:50;;;;;;;8.25;3.13;;;;;;;18.82;70.43;100214.38;5019864;28;20075;-67
2023/06/15 00:16:18;;;;;;;12.38;3.28;;;;;;;18.82;70.71;100201.03;5037588;28;20766;-67
2023/06/15 00:18:47;;;;;;;10.50;3.50;;;;;;;18.81;70.66;100215.31;5037404;28;20079;-67
2023/06/15 00:21:15;;;;;;;9.70;3.85;;;;;;;18.77;70.75;100216.34;5037705;28;20025;-67
2023/06/15 00:23:41;;;;;;;9.57;3.50;;;;;;;18.76;70.61;100222.63;5037251;28;20448;-67
2023/06/15 00:26:06;;;;;;;10.65;3.78;;;;;;;18.70;71.21;100223.72;5037821;28;20052;-67
2023/06/15 00:28:31;;;;;;;9.57;3.70;;;;;;;18.65;71.37;100221.22;5037447;28;20037;-67
2023/06/15 00:30:57;;;;;;;8.90;3.80;;;;;;;18.67;70.97;100217.63;5018711;28;20104;-68
2023/06/15 00:33:22;;;;;;;8.37;3.00;;;;;;;18.67;70.99;100212.28;5037318;28;20033;-67
2023/06/15 00:35:47;;;;;;;8.87;3.50;;;;;;;18.67;70.91;100221.19;5037491;28;20128;-68
2023/06/15 00:38:13;;;;;;;8.23;3.43;;;;;;;18.65;71.05;100220.38;5037051;28;20628;-68
2023/06/15 00:40:38;;;;;;;9.93;3.60;;;;;;;18.66;70.84;100224.78;5037284;28;20032;-68
2023/06/15 00:43:04;;;;;;;9.27;3.47;;;;;;;18.63;70.96;100223.09;5037210;28;20059;-67
2023/06/15 00:45:29;;;;;;;9.60;3.70;;;;;;;18.60;71.28;100223.19;5036695;28;20479;-67
2023/06/15 00:47:55;;;;;;;10.47;4.30;;;;;;;18.54;71.55;100231.44;5036904;28;20588;-68
2023/06/15 00:50:20;;;;;;;10.50;4.60;;;;;;;18.50;71.41;100230.69;5037225;28;20508;-68
2023/06/15 00:52:50;;;;;;;9.60;3.25;;;;;;;18.49;71.23;100231.59;5036869;28;20026;-68
2023/06/15 00:55:17;;;;;;;10.47;3.67;;;;;;;18.48;71.53;100229.88;5037175;28;20037;-67
2023/06/15 00:57:44;;;;;;;10.05;3.35;;;;;;;18.48;71.49;100237.03;5037071;28;20041;-67
2023/06/15 01:00:14;;;;;;;12.55;3.92;;;;;;;18.43;71.56;100231.84;5019207;28;20026;-67
2023/06/15 01:02:40;;;;;;;10.40;3.60;;;;;;;18.38;71.85;100230.28;5036976;28;20089;-68
2023/06/15 01:05:11;;;;;;;10.93;4.07;;;;;;;18.36;71.57;100225.88;5019115;28;20055;-68
2023/06/15 01:07:40;;;;;;;11.53;3.50;;;;;;;18.32;71.73;100224.25;5049610;28;20025;-68
2023/06/15 01:10:12;;;;;;;11.60;4.10;;;;;;;18.28;72.05;100227.06;5037123;28;20025;-68
2023/06/15 01:12:40;;;;;;;9.23;3.60;;;;;;;18.28;71.76;100221.75;5036654;28;20036;-67
2023/06/15 01:15:07;;;;;;;8.00;3.58;;;;;;;18.29;71.72;100224.38;5036531;28;20048;-67
2023/06/15 01:17:33;;;;;;;11.63;3.55;;;;;;;18.25;72.07;100225.41;5036491;28;20025;-67
2023/06/15 01:20:07;;;;;;;9.83;3.80;;;;;;;18.27;71.89;100228.88;5036851;28;20025;-67
2023/06/15 01:23:13;;;;;;;9.75;3.60;;;;;;;18.27;71.82;100230.66;5036317;28;20021;-67
2023/06/15 01:25:44;;;;;;;10.23;3.60;;;;;;;18.27;71.69;100230.66;5036473;28;20021;-68
2023/06/15 01:28:13;;;;;;;8.27;3.28;;;;;;;18.27;71.63;100228.88;5036764;28;20028;-67
2023/06/15 01:30:45;;;;;;;8.25;3.42;;;;;;;18.23;71.77;100235.25;5036325;28;20053;-67
2023/06/15 01:33:11;;;;;;;9.17;3.83;;;;;;;18.22;71.83;100231.72;5036453;28;20100;-67
2023/06/15 01:35:38;;;;;;;7.72;3.08;;;;;;;18.22;71.79;100236.19;5036737;28;20017;-67
2023/06/15 01:38:04;;;;;;;7.80;3.45;;;;;;;18.23;71.79;100240.59;5018486;28;20155;-67
2023/06/15 01:40:32;;;;;;;7.03;3.67;;;;;;;18.20;71.91;100240.69;5036236;28;20056;-67
2023/06/15 01:42:59;;;;;;;8.23;3.78;;;;;;;18.17;71.80;100244.34;5018611;28;20022;-67
2023/06/15 01:45:26;;;;;;;8.57;3.57;;;;;;;18.15;71.97;100243.53;5036381;28;20023;-67
2023/06/15 01:47:52;;;;;;;9.10;3.92;;;;;;;18.17;71.78;100243.47;5036106;28;20132;-67
2023/06/15 01:50:19;;;;;;;11.27;3.60;;;;;;;18.17;72.02;100252.34;5036397;28;20025;-68
2023/06/15 01:52:45;;;;;;;9.60;3.60;;;;;;;18.16;72.02;100249.72;5036062;28;20104;-67
2023/06/15 01:55:11;;;;;;;10.05;3.95;;;;;;;18.13;72.16;100248.03;5036380;28;20104;-67
2023/06/15 01:57:38;;;;;;;9.60;3.50;;;;;;;18.11;72.11;100252.56;5036405;28;20064;-67
2023/06/15 02:00:05;;;;;;;9.10;3.60;;;;;;;18.09;72.30;100249.09;5018559;28;20022;-67
2023/06/15 02:02:34;;;;;;;13.73;4.38;;;;;;;18.08;72.31;100255.31;5036175;28;20506;-67
2023/06/15 02:05:01;;;;;;;11.20;3.90;;;;;;;18.04;72.48;100254.56;5036136;28;20029;-67
2023/06/15 02:07:27;;;;;;;10.82;3.78;;;;;;;18.04;72.39;100259.91;5048031;28;20036;-67
2023/06/15 02:09:53;;;;;;;6.97;3.87;;;;;;;18.04;72.55;100256.34;5036444;28;20025;-67
2023/06/15 02:12:18;;;;;;;9.23;3.77;;;;;;;18.05;72.46;100253.66;5035892;28;20071;-67
2023/06/15 02:14:44;;;;;;;8.18;3.53;;;;;;;18.05;72.79;100250.97;5036072;28;20100;-67
2023/06/15 02:17:10;;;;;;;10.87;3.90;;;;;;;18.03;72.61;100252.81;5035728;28;20481;-67
2023/06/15 02:19:36;;;;;;;7.50;3.60;;;;;;;18.03;72.74;100255.50;5036177;28;20024;-67
2023/06/15 02:22:01;;;;;;;9.23;3.60;;;;;;;18.05;72.79;100255.41;5036114;28;20096;-67
2023/06/15 02:24:27;;;;;;;10.57;3.95;;;;;;;18.03;72.89;100252.81;5036015;28;20028;-67
2023/06/15 02:26:52;;;;;;;9.10;3.57;;;;;;;18.04;72.85;100257.22;5036018;28;20026;-67
2023/06/15 02:29:17;;;;;;;9.10;3.30;;;;;;;18.08;72.61;100263.31;5036070;28;20053;-67
2023/06/15 02:31:43;;;;;;;8.77;3.87;;;;;;;18.10;72.93;100263.25;5035900;28;20025;-67
2023/06/15 02:34:08;;;;;;;10.97;4.03;;;;;;;18.09;72.54;100257.09;5036016;28;20037;-67
2023/06/15 02:36:34;;;;;;;9.32;3.80;;;;;;;18.09;72.83;100254.41;5035819;28;20022;-67
2023/06/15 02:39:01;;;;;;;11.98;4.68;;;;;;;18.08;72.95;100269.53;5035723;28;20072;-67
2023/06/15 02:41:26;;;;;;;11.05;3.63;;;;;;;18.10;72.72;100266.81;5035916;28;20029;-67
2023/06/15 02:43:52;;;;;;;11.47;3.80;;;;;;;18.10;72.92;100263.25;5036086;28;20080;-67
2023/06/15 02:46:18;;;;;;;11.13;4.60;;;;;;;18.06;72.65;100268.72;5035739;28;20423;-67
2023/06/15 02:48:44;;;;;;;7.70;3.60;;;;;;;18.06;72.50;100271.38;5035433;28;20111;-67
2023/06/15 02:51:10;;;;;;;9.77;4.15;;;;;;;18.08;72.69;100266.84;5035786;28;20025;-67
2023/06/15 02:53:35;;;;;;;10.20;3.70;;;;;;;18.13;72.41;100268.47;5037838;28;20136;-67
2023/06/15 02:56:02;;;;;;;9.90;4.10;;;;;;;18.15;72.40;100264.84;5039395;28;20116;-67
2023/06/15 02:58:32;;;;;;;10.73;3.90;;;;;;;18.15;72.47;100263.97;5021519;28;20025;-67
2023/06/15 03:01:00;;;;;;;9.98;3.65;;;;;;;18.10;72.76;100265.94;5038927;28;20430;-67
2023/06/15 03:03:27;;;;;;;8.57;4.18;;;;;;;18.04;72.69;100272.34;5039355;28;20474;-67
2023/06/15 03:05:53;;;;;;;7.97;3.40;;;;;;;18.02;72.61;100269.75;5039256;28;20421;-67
2023/06/15 03:08:20;;;;;;;10.35;3.70;;;;;;;18.04;72.47;100281.22;5038994;28;20091;-67
2023/06/15 03:10:45;;;;;;;9.63;3.60;;;;;;;18.06;72.52;100274.03;5038830;28;20104;-67
2023/06/15 03:13:11;;;;;;;8.63;3.50;;;;;;;18.05;72.56;100276.75;5038868;28;20104;-67
2023/06/15 03:15:37;;;;;;;10.00;3.58;;;;;;;18.04;72.60;100273.22;5038824;28;20021;-67
2023/06/15 03:18:04;;;;;;;10.75;3.67;;;;;;;18.05;72.59;100274.97;5038666;28;20398;-67
2023/06/15 03:20:32;;;;;;;8.48;3.78;;;;;;;18.06;72.47;100275.81;5020881;28;20108;-67
2023/06/15 03:22:58;;;;;;;7.60;3.60;;;;;;;18.06;72.39;100274.03;5038594;28;20075;-67
2023/06/15 03:25:25;;;;;;;9.73;3.70;;;;;;;18.06;72.34;100282.03;5038550;28;20030;-67
2023/06/15 03:27:53;;;;;;;9.70;3.55;;;;;;;18.05;72.33;100282.94;5038811;28;20025;-68
2023/06/15 03:30:19;;;;;;;9.82;4.10;;;;;;;18.08;72.48;100292.63;5038289;28;20431;-67
2023/06/15 03:32:47;;;;;;;9.25;3.92;;;;;;;18.11;72.36;100297.88;5038166;28;20037;-67
2023/06/15 03:35:12;;;;;;;7.77;3.80;;;;;;;18.08;72.27;100301.50;5038445;28;20018;-67
2023/06/15 03:37:38;;;;;;;10.65;3.50;;;;;;;18.08;72.34;100298.84;5038309;28;20083;-68
2023/06/15 03:40:05;;;;;;;9.17;3.10;;;;;;;18.10;72.16;100303.25;5038388;28;20037;-67
2023/06/15 03:42:31;;;;;;;11.43;3.67;;;;;;;18.13;71.99;100308.47;5038363;28;20021;-67
2023/06/15 03:44:56;;;;;;;7.43;3.05;;;;;;;18.15;72.02;100298.59;5038411;28;20031;-67
2023/06/15 03:47:22;;;;;;;8.27;3.47;;;;;;;18.15;71.92;100302.16;5038069;28;20132;-67
2023/06/15 03:49:47;;;;;;;9.33;3.40;;;;;;;18.15;71.81;100301.28;5038029;28;20037;-67
2023/06/15 03:52:12;;;;;;;10.40;3.70;;;;;;;18.09;72.06;100299.72;5038197;28;20097;-67
2023/06/15 03:54:38;;;;;;;8.57;3.67;;;;;;;18.07;72.00;100306.88;5038221;28;20028;-68
2023/06/15 03:57:03;;;;;;;8.23;3.60;;;;;;;18.03;72.00;100313.22;5038192;28;20029;-67
2023/06/15 03:59:29;;;;;;;11.07;3.80;;;;;;;18.04;72.18;100307.88;5038119;28;20275;-67
2023/06/15 04:01:54;;;;;;;7.83;3.60;;;;;;;18.03;72.13;100303.47;5038577;28;20039;-67
2023/06/15 04:04:20;;;;;;;10.23;3.33;;;;;;;18.03;72.21;100302.56;5037226;28;20064;-67
2023/06/15 04:06:46;;;;;;;8.73;3.30;;;;;;;18.05;72.22;100306.94;5046828;28;20024;-67
2023/06/15 04:09:13;;;;;;;8.63;3.53;;;;;;;18.09;71.98;100313.03;5042404;28;20029;-67
2023/06/15 04:11:39;;;;;;;9.07;3.37;;;;;;;18.10;71.84;100320.13;5038415;28;20025;-67
2023/06/15 04:14:05;;;;;;;10.63;3.45;;;;;;;18.14;71.96;100315.53;5037988;28;20428;-67
2023/06/15 04:16:30;;;;;;;10.00;3.33;;;;;;;18.12;71.83;100318.25;5020431;28;20033;-68
2023/06/15 04:18:57;;;;;;;9.20;3.25;;;;;;;18.10;71.89;100329.88;5037941;28;20434;-67
2023/06/15 04:21:22;;;;;;;6.77;3.33;;;;;;;18.11;71.78;100328.97;5038041;28;20101;-67
2023/06/15 04:23:48;;;;;;;9.52;3.80;;;;;;;18.10;71.77;100332.56;5019938;28;20108;-67
2023/06/15 04:26:13;;;;;;;8.57;3.17;;;;;;;18.09;71.81;100334.34;5038166;28;20072;-67
2023/06/15 04:28:39;;;;;;;10.07;3.95;;;;;;;18.08;71.88;100336.13;5037579;28;20108;-67
2023/06/15 04:31:12;;;;;;;11.43;3.47;;;;;;;18.07;71.64;100342.41;5037844;28;20036;-68
2023/06/15 04:33:46;;;;;;;9.07;3.85;;;;;;;18.12;71.90;100338.69;5037776;28;20384;-67
2023/06/15 04:36:12;;;;;;;9.23;4.00;;;;;;;18.14;72.15;100347.50;5037888;28;20586;-68
2023/06/15 04:38:46;;;;;;;7.85;3.60;;;;;;;18.11;71.76;100345.84;5037597;28;20481;-68
2023/06/15 04:41:16;;;;;;;9.55;3.60;;;;;;;18.10;71.74;100337.88;5019916;28;20056;-67
2023/06/15 04:43:42;;;;;;;8.50;3.63;;;;;;;18.11;71.89;100339.63;5024907;28;20553;-67
2023/06/15 04:46:08;;;;;;;8.60;3.80;;;;;;;18.09;71.94;100337.03;5037638;28;20056;-67
2023/06/15 04:48:33;;;;;;;12.80;4.40;;;;;;;18.06;72.16;100345.09;5037359;28;20299;-68
2023/06/15 04:50:59;;;;;;;8.37;3.67;;;;;;;18.02;72.11;100333.69;5037433;28;20028;-67
2023/06/15 04:53:25;;;;;;;11.27;3.83;;;;;;;18.04;72.07;100338.94;5037339;28;20036;-67
2023/06/15 04:55:51;;;;;;;7.73;3.90;;;;;;;18.05;71.88;100349.56;5037481;28;20029;-68
2023/06/15 04:58:17;;;;;;;10.05;3.88;;;;;;;18.06;72.31;100345.97;5037618;28;20026;-67
2023/06/15 05:00:42;;;;;;;11.65;3.65;;;;;;;18.06;72.01;100340.66;5037223;28;20029;-68
2023/06/15 05:03:08;;;;;;;10.10;4.07;;;;;;;18.05;71.92;100349.56;5037377;28;20025;-67
2023/06/15 05:05:34;;;;;;;8.73;3.75;;;;;;;18.06;72.12;100347.75;5037200;28;20057;-67
2023/06/15 05:07:59;;;;;;;9.53;3.70;;;;;;;18.06;72.14;100345.97;5049252;28;20084;-67
2023/06/15 05:10:25;;;;;;;8.60;3.50;;;;;;;18.07;71.95;100347.72;5037245;28;20371;-68
2023/06/15 05:12:50;;;;;;;9.70;4.53;;;;;;;18.08;72.07;100352.13;5024743;28;20283;-68
2023/06/15 05:15:16;;;;;;;10.60;4.20;;;;;;;18.07;72.05;100358.38;5036743;28;20024;-67
2023/06/15 05:17:41;;;;;;;10.67;3.77;;;;;;;18.07;72.09;100362.81;5036929;28;20111;-67
2023/06/15 05:20:08;;;;;;;7.53;3.80;;;;;;;18.07;72.15;100360.16;5037006;28;20870;-67
2023/06/15 05:22:33;;;;;;;11.15;3.88;;;;;;;18.11;72.02;100363.59;5036934;28;20470;-67
2023/06/15 05:24:58;;;;;;;8.63;4.00;;;;;;;18.13;72.13;100364.41;5036377;28;20043;-67
2023/06/15 05:27:24;;;;;;;9.93;4.00;;;;;;;18.13;72.16;100356.44;5025728;28;20091;-67
2023/06/15 05:29:49;;;;;;;13.50;3.70;;;;;;;18.12;72.27;100360.91;5009765;28;20115;-67
2023/06/15 05:32:15;;;;;;;8.80;3.67;;;;;;;18.11;72.26;100368.94;5027332;28;20513;-68
2023/06/15 05:34:41;;;;;;;10.45;3.80;;;;;;;18.12;72.11;100360.91;5037080;28;20028;-68
2023/06/15 05:37:06;;;;;;;10.23;3.67;;;;;;;18.11;72.39;100364.50;5034066;28;20032;-68
2023/06/15 05:39:31;;;;;;;14.33;4.60;;;;;;;18.11;72.16;100366.28;5032331;28;20025;-68
2023/06/15 05:41:57;;;;;;;8.57;3.73;;;;;;;18.15;72.21;100359.91;5036819;28;20478;-68
2023/06/15 05:44:22;;;;;;;7.20;3.87;;;;;;;18.16;72.04;100366.97;5036806;28;20077;-68
2023/06/15 05:46:48;;;;;;;11.40;3.72;;;;;;;18.19;71.96;100370.41;5035912;28;20509;-68
2023/06/15 05:49:13;;;;;;;12.73;4.20;;;;;;;18.22;71.84;100372.13;5036274;28;20017;-68
2023/06/15 05:51:38;;;;;;;8.87;3.60;;;;;;;18.19;71.89;100369.53;5034413;28;20504;-68
2023/06/15 05:54:04;;;;;;;12.13;3.73;;;;;;;18.19;71.94;100366.88;5029311;28;20030;-68
2023/06/15 05:56:30;;;;;;;13.32;3.72;;;;;;;18.22;72.06;100378.31;5034121;28;20080;-69
2023/06/15 05:58:55;;;;;;;9.10;4.17;;;;;;;18.23;71.75;100365.88;5029662;28;21951;-68
2023/06/15 06:01:21;;;;;;;11.23;3.97;;;;;;;18.22;72.03;100366.78;5016658;28;20057;-69
2023/06/15 06:03:47;;;;;;;10.53;3.87;;;;;;;18.22;71.87;100372.13;5041352;28;20072;-69
2023/06/15 06:06:13;;;;;;;10.25;3.78;;;;;;;18.26;71.90;100367.53;5018354;28;20401;-69
2023/06/15 06:08:38;;;;;;;9.07;3.90;;;;;;;18.28;71.80;100366.56;5035747;28;20030;-69
2023/06/15 06:11:08;;;;;;;8.43;4.00;;;;;;;18.30;71.64;100362.06;5035645;28;20029;-69
2023/06/15 06:13:34;;;;;;;8.48;3.40;;;;;;;18.38;71.52;100356.47;5036634;28;20079;-69
2023/06/15 06:16:00;;;;;;;9.13;3.97;;;;;;;18.44;71.43;100360.69;5011606;28;20038;-69
2023/06/15 06:18:26;;;;;;;8.70;3.63;;;;;;;18.50;71.51;100366.69;5010640;28;20037;-69
2023/06/15 06:20:51;;;;;;;9.88;3.55;;;;;;;18.54;71.24;100367.44;5013077;28;20025;-68
2023/06/15 06:23:16;;;;;;;6.87;3.50;;;;;;;18.60;71.51;100369.03;5035383;28;20026;-68
2023/06/15 06:25:42;;;;;;;9.93;3.70;;;;;;;18.61;71.22;100363.63;5033217;28;20030;-69
2023/06/15 06:28:07;;;;;;;10.67;4.27;;;;;;;18.64;71.03;100362.66;5047264;28;20060;-68
2023/06/15 06:30:33;;;;;;;10.00;4.50;;;;;;;18.67;71.14;100367.00;5038879;28;20027;-68
2023/06/15 06:32:58;;;;;;;12.93;5.20;;;;;;;18.73;71.09;100372.13;5038586;28;20036;-68
2023/06/15 06:35:24;;;;;;;12.57;4.50;;;;;;;18.75;70.88;100365.78;5038700;28;20028;-68
2023/06/15 06:37:49;;;;;;;12.00;4.03;;;;;;;18.81;70.88;100364.69;5021973;28;20528;-68
2023/06/15 06:40:14;;;;;;;12.93;4.40;;;;;;;18.83;70.61;100360.19;5039823;28;20059;-68
2023/06/15 06:42:40;;;;;;;10.07;3.83;;;;;;;18.88;70.53;100370.69;5022122;28;20378;-68
2023/06/15 06:45:06;;;;;;;7.83;3.40;;;;;;;18.88;70.33;100371.53;5039787;28;20048;-68
2023/06/15 06:47:31;;;;;;;8.67;3.60;;;;;;;18.87;70.41;100375.13;5021815;28;20529;-68
2023/06/15 06:49:59;;;;;;;10.87;4.00;;;;;;;18.88;70.36;100371.53;5039885;28;20763;-68
2023/06/15 06:52:25;;;;;;;11.30;3.70;;;;;;;18.89;70.66;100372.44;5039243;28;20017;-68
2023/06/15 06:54:50;;;;;;;11.67;3.73;;;;;;;18.88;70.52;100382.22;5036814;28;20025;-69
2023/06/15 06:57:17;;;;;;;10.30;3.90;;;;;;;18.90;70.40;100380.34;5039784;28;20559;-68
2023/06/15 06:59:42;;;;;;;9.90;3.90;;;;;;;18.97;70.38;100385.50;5039310;28;20033;-69
2023/06/15 07:02:08;;;;;;;8.50;4.00;;;;;;;19.03;70.26;100379.94;5039215;28;20025;-68
2023/06/15 07:04:33;;;;;;;8.10;4.03;;;;;;;19.06;70.09;100380.72;5039286;28;20033;-69
2023/06/15 07:06:59;;;;;;;7.73;3.50;;;;;;;19.16;70.10;100378.53;5041873;28;20083;-69
2023/06/15 07:09:24;;;;;;;10.90;3.65;;;;;;;19.21;70.08;100381.94;5039408;28;20052;-69
2023/06/15 07:11:49;;;;;;;10.40;3.70;;;;;;;19.29;69.73;100378.09;5021285;28;20087;-69
2023/06/15 07:14:15;;;;;;;10.47;4.00;;;;;;;19.34;69.33;100374.31;5039178;28;20084;-69
2023/06/15 07:16:40;;;;;;;9.77;4.13;;;;;;;19.41;69.22;100374.94;5021487;28;20029;-69
2023/06/15 07:19:06;;;;;;;9.97;3.90;;;;;;;19.49;69.05;100372.84;5038641;28;20033;-68
2023/06/15 07:21:31;;;;;;;13.38;4.47;;;;;;;19.58;69.03;100376.94;5039264;28;20486;-69
2023/06/15 07:23:56;;;;;;;9.00;4.30;;;;;;;19.65;68.69;100374.88;5039096;28;20049;-69
2023/06/15 07:26:23;;;;;;;8.43;3.97;;;;;;;19.76;68.36;100386.00;5039053;28;20037;-69
2023/06/15 07:28:49;;;;;;;8.13;3.75;;;;;;;19.83;68.36;100386.63;5038931;28;20080;-69
2023/06/15 07:31:14;;;;;;;10.80;3.87;;;;;;;19.89;68.35;100382.81;5039062;28;20462;-69
2023/06/15 07:33:40;;;;;;;9.70;3.85;;;;;;;19.93;67.97;100382.69;5038961;28;20025;-69
2023/06/15 07:36:05;;;;;;;7.80;3.73;;;;;;;19.94;67.84;100387.09;5025738;28;20079;-69
2023/06/15 07:38:31;;;;;;;8.40;4.38;;;;;;;19.98;67.60;100387.84;5038545;28;20109;-69
2023/06/15 07:40:57;;;;;;;10.80;4.50;;;;;;;19.99;67.83;100381.56;5038848;28;20112;-69
2023/06/15 07:43:22;;;;;;;10.63;4.30;;;;;;;20.02;67.75;100381.44;5038791;28;20040;-69
2023/06/15 07:45:47;;;;;;;8.15;4.47;;;;;;;20.06;67.36;100390.19;5038593;28;20023;-69
2023/06/15 07:48:13;;;;;;;9.20;3.93;;;;;;;20.07;67.04;100395.47;5020798;28;20049;-69
2023/06/15 07:50:39;;;;;;;8.10;4.53;;;;;;;20.06;66.93;100385.72;5038611;28;20042;-69
2023/06/15 07:53:04;;;;;;;9.82;4.32;;;;;;;20.08;66.61;100396.34;5038277;28;20026;-69
2023/06/15 07:55:30;;;;;;;10.53;4.23;;;;;;;20.10;66.51;100393.59;5038635;28;20034;-69
2023/06/15 07:57:55;;;;;;;10.47;4.13;;;;;;;20.12;66.46;100395.28;5020768;28;20462;-69
2023/06/15 08:00:21;;;;;;;12.03;4.70;;;;;;;20.12;66.26;100397.06;5038313;28;20037;-69
2023/06/15 08:02:48;;;;;;;10.87;4.80;;;;;;;20.13;66.09;100404.16;5038538;28;20267;-69
2023/06/15 08:05:13;;;;;;;10.15;4.50;;;;;;;20.09;65.71;100400.75;5038580;28;20021;-69
2023/06/15 08:07:39;;;;;;;10.80;4.67;;;;;;;20.05;66.27;100402.69;5050754;28;20037;-69
2023/06/15 08:10:05;;;;;;;10.35;4.95;;;;;;;20.07;66.04;100407.97;5038586;28;20030;-68
2023/06/15 08:12:31;;;;;;;11.73;4.50;;;;;;;20.08;66.16;100415.06;5020298;28;20040;-68
2023/06/15 08:14:56;;;;;;;10.67;4.77;;;;;;;20.05;66.12;100409.84;5037685;28;20099;-66
2023/06/15 08:17:22;;;;;;;11.02;5.05;;;;;;;20.05;66.01;100401.84;5037932;28;20064;-68
2023/06/15 08:19:47;;;;;;;9.57;4.73;;;;;;;20.12;66.31;100407.75;5038253;28;20493;-68
2023/06/15 08:22:13;;;;;;;15.27;5.07;;;;;;;20.18;66.13;100408.38;5037835;28;20084;-68
2023/06/15 08:24:38;;;;;;;12.70;4.60;;;;;;;20.26;65.97;100410.75;5038089;28;20109;-68
2023/06/15 08:27:05;;;;;;;9.70;4.70;;;;;;;20.33;65.78;100406.88;5020151;28;20048;-68
2023/06/15 08:29:31;;;;;;;9.18;5.07;;;;;;;20.34;65.75;100391.69;5037762;28;20036;-68
2023/06/15 08:31:56;;;;;;;9.82;4.88;;;;;;;20.48;64.97;100399.13;5037681;28;20033;-68
2023/06/15 08:34:22;;;;;;;9.57;5.00;;;;;;;20.81;64.93;100395.06;5038034;28;20059;-68
2023/06/15 08:36:49;;;;;;;12.10;4.73;;;;;;;21.12;64.41;100402.59;5037478;28;20029;-68
2023/06/15 08:39:14;;;;;;;13.32;5.20;;;;;;;21.41;63.58;100399.47;5037679;28;20029;-68
2023/06/15 08:41:44;;;;;;;7.50;4.67;;;;;;;21.54;63.21;100389.91;5037596;28;20041;-68
2023/06/15 08:44:10;;;;;;;12.32;5.35;;;;;;;21.78;62.94;100403.94;5037767;28;20052;-68
2023/06/15 08:46:36;;;;;;;8.10;4.70;;;;;;;22.01;62.21;100388.53;5037206;28;20033;-69
2023/06/15 08:49:02;;;;;;;10.97;4.97;;;;;;;22.15;61.92;100387.00;5037523;28;20038;-68
2023/06/15 08:51:28;;;;;;;10.50;5.40;;;;;;;22.24;61.45;100391.88;5036769;28;20025;-68
2023/06/15 08:53:57;;;;;;;11.63;4.97;;;;;;;22.29;61.14;100388.97;5037498;28;20484;-68
2023/06/15 08:56:23;;;;;;;11.32;5.35;;;;;;;22.35;61.08;100392.22;5037406;28;20583;-68
2023/06/15 08:58:51;;;;;;;11.13;5.57;;;;;;;22.44;60.61;100387.31;5037511;28;20092;-68
2023/06/15 09:01:24;;;;;;;10.57;5.20;;;;;;;22.50;60.16;100382.53;5037006;28;20040;-68
2023/06/15 09:03:54;;;;;;;11.73;4.95;;;;;;;22.51;59.67;100389.63;5037641;28;20082;-68
2023/06/15 09:06:21;;;;;;;13.75;5.30;;;;;;;22.49;60.19;100393.31;5042167;28;20497;-67
2023/06/15 09:08:48;;;;;;;10.50;5.10;;;;;;;22.46;59.66;100388.09;5026357;28;20410;-68
2023/06/15 09:11:14;;;;;;;10.70;5.38;;;;;;;22.37;59.13;100387.63;5037029;28;20025;-68
2023/06/15 09:13:41;;;;;;;12.88;6.03;;;;;;;22.29;59.02;100395.19;5036797;28;20108;-68
2023/06/15 09:16:08;;;;;;;10.95;5.68;;;;;;;22.23;59.42;100398.19;5036998;28;20441;-68
2023/06/15 09:18:47;;;;;;;12.63;5.82;;;;;;;22.14;59.08;100388.78;5037018;28;20025;-68
2023/06/15 09:21:14;;;;;;;12.13;5.30;;;;;;;22.15;59.26;100395.03;5025517;28;20053;-68
2023/06/15 09:23:44;;;;;;;9.15;5.20;;;;;;;22.08;58.91;100389.09;5036699;28;20021;-69
2023/06/15 09:26:22;;;;;;;9.52;4.88;;;;;;;22.11;59.21;100388.94;5037210;28;20034;-68
2023/06/15 09:28:48;;;;;;;13.35;5.20;;;;;;;22.28;59.22;100385.41;5036795;28;20055;-68
2023/06/15 09:31:34;;;;;;;12.57;5.23;;;;;;;22.46;59.03;100377.34;5036909;28;20081;-68
2023/06/15 09:34:05;;;;;;;11.63;5.60;;;;;;;22.71;58.50;100373.41;5023533;28;20490;-69
2023/06/15 09:36:35;;;;;;;9.00;4.90;;;;;;;22.87;58.05;100379.69;5036833;28;20025;-68
2023/06/15 09:39:03;;;;;;;11.00;5.07;;;;;;;22.91;56.82;100373.22;5036698;28;20021;-68
2023/06/15 09:41:28;;;;;;;12.40;5.20;;;;;;;22.91;57.34;100378.56;5036733;28;20026;-68
2023/06/15 09:43:54;;;;;;;10.40;5.00;;;;;;;22.87;57.24;100379.69;5036956;28;20021;-69
2023/06/15 09:46:20;;;;;;;10.63;5.40;;;;;;;22.90;56.94;100392.97;5018686;28;20116;-68
2023/06/15 09:48:49;;;;;;;9.63;4.78;;;;;;;22.93;56.84;100382.03;5036473;28;20154;-69
2023/06/15 09:51:16;;;;;;;11.93;5.05;;;;;;;22.99;56.36;100379.97;5036798;28;20032;-68
2023/06/15 09:53:43;;;;;;;11.23;5.00;;;;;;;23.08;55.85;100385.72;5036448;28;20025;-68
2023/06/15 09:56:10;;;;;;;9.93;5.10;;;;;;;23.16;55.86;100379.06;5018930;28;20517;-68
2023/06/15 09:58:35;;;;;;;12.10;5.00;;;;;;;23.20;56.16;100375.25;5036662;28;20040;-69
2023/06/15 10:01:04;;;;;;;10.80;4.87;;;;;;;23.23;55.80;100383.16;5036230;28;20033;-68
2023/06/15 10:03:31;;;;;;;9.03;4.90;;;;;;;23.16;54.71;100387.97;5023007;28;20628;-68
2023/06/15 10:06:08;;;;;;;8.43;4.85;;;;;;;23.04;55.61;100389.53;5040686;28;20555;-68
2023/06/15 10:08:38;;;;;;;7.72;4.80;;;;;;;23.12;56.10;100386.41;5040403;28;20030;-68
2023/06/15 10:11:04;;;;;;;8.48;5.40;;;;;;;23.31;56.00;100386.28;5040489;28;20555;-68
2023/06/15 10:13:35;;;;;;;8.70;4.97;;;;;;;23.55;55.91;100387.72;5040536;28;20060;-68
2023/06/15 10:16:02;;;;;;;9.00;5.10;;;;;;;23.70;55.11;100385.97;5040351;28;20053;-69
2023/06/15 10:18:29;;;;;;;8.70;4.80;;;;;;;23.71;54.85;100390.38;5022591;28;20053;-69
2023/06/15 10:20:59;;;;;;;11.07;4.82;;;;;;;23.67;54.79;100391.53;5040510;28;20040;-70
2023/06/15 10:23:27;;;;;;;8.20;4.65;;;;;;;23.62;54.79;100383.72;5040190;28;20029;-68
2023/06/15 10:25:55;;;;;;;8.48;4.68;;;;;;;23.59;55.30;100386.56;5040337;28;20033;-69
2023/06/15 10:28:23;;;;;;;8.53;4.37;;;;;;;23.60;55.19;100386.47;5040327;28;20033;-68
2023/06/15 10:31:12;;;;;;;11.65;4.50;;;;;;;23.61;55.32;100390.03;5040017;28;20026;-68
2023/06/15 10:34:00;;;;;;;10.25;4.40;;;;;;;23.60;55.56;100385.63;5040213;28;20041;-68
2023/06/15 10:36:36;;;;;;;10.07;5.38;;;;;;;23.66;54.68;100385.25;5040110;28;20033;-69
2023/06/15 10:39:22;;;;;;;10.40;4.50;;;;;;;23.67;55.23;100381.63;5028070;28;20517;-68
2023/06/15 10:41:52;;;;;;;9.13;4.67;;;;;;;23.74;54.00;100377.59;5040089;28;20025;-69
2023/06/15 10:44:17;;;;;;;8.95;4.43;;;;;;;23.89;54.91;100380.38;5040021;28;20033;-68
2023/06/15 10:46:43;;;;;;;8.33;4.30;;;;;;;23.98;54.50;100369.06;5021768;28;20095;-69
2023/06/15 10:49:10;;;;;;;11.32;4.50;;;;;;;24.03;54.44;100377.78;5040000;28;20025;-69
2023/06/15 10:51:40;;;;;;;13.30;4.70;;;;;;;24.06;54.28;100374.03;5021762;28;20129;-69
2023/06/15 10:54:21;;;;;;;8.60;4.57;;;;;;;24.02;53.71;100373.38;5039898;28;20036;-69
2023/06/15 10:56:50;;;;;;;10.25;4.90;;;;;;;24.00;53.98;100364.50;5027007;28;20119;-69
2023/06/15 10:59:41;;;;;;;11.75;4.95;;;;;;;24.05;54.35;100375.88;5022207;28;20029;-69
2023/06/15 11:02:36;;;;;;;10.43;4.40;;;;;;;24.14;54.15;100373.59;5012719;28;20477;-69
2023/06/15 11:05:09;;;;;;;9.63;4.30;;;;;;;24.27;53.81;100369.22;5019010;28;20571;-69
2023/06/15 11:07:40;;;;;;;10.02;4.30;;;;;;;24.30;53.05;100370.84;5052250;28;20028;-69
2023/06/15 11:10:16;;;;;;;9.48;4.75;;;;;;;24.27;53.07;100358.44;5039763;28;20029;-69
2023/06/15 11:12:44;;;;;;;8.63;4.28;;;;;;;24.28;52.78;100365.56;5039115;28;20036;-69
2023/06/15 11:15:13;;;;;;;9.20;4.65;;;;;;;24.30;53.13;100365.47;5038811;28;20091;-69
2023/06/15 11:18:00;;;;;;;9.33;4.77;;;;;;;24.26;53.06;100367.50;5039030;28;20037;-69
2023/06/15 11:20:47;;;;;;;8.38;4.65;;;;;;;24.30;53.25;100363.66;5039322;28;20052;-69
2023/06/15 11:23:18;;;;;;;11.13;5.03;;;;;;;24.34;53.16;100364.31;5021202;28;20037;-69